SWA1226 KPBI-MBPV
Flight info
| Callsign | SWA1226 |
|---|---|
| Flight time | 1h 31m |
| Altitude | 31000 |
| Route | MIXAE2 HALBI LAUTH BENOS |
| Aircraft | B738/M-VGDW/C |
Departure
| Time | 2026-05-06 07:03 |
|---|---|
| Airport | Palm Beach International Airport (KPBI) |
Arrival
| Time | 2026-05-06 08:35 |
|---|---|
| Airport | Providenciales International Airport (MBPV) |
| Time | Latitude | Longitude | Altitude | Speed | Heading |
|---|---|---|---|---|---|
| 2026-05-06 06:42 | 26.68891 | -80.09335 | 18 ft | 0 kts | 160° |
| 2026-05-06 06:44 | 26.68890 | -80.09335 | 18 ft | 0 kts | 160° |
| 2026-05-06 06:53 | 26.68892 | -80.09335 | 18 ft | 4 kts | 160° |
| 2026-05-06 06:54 | 26.68924 | -80.09348 | 18 ft | 4 kts | 160° |
| 2026-05-06 06:54 | 26.68935 | -80.09352 | 18 ft | 0 kts | 160° |
| 2026-05-06 06:55 | 26.68934 | -80.09352 | 18 ft | 0 kts | 170° |
| 2026-05-06 06:56 | 26.68927 | -80.09354 | 18 ft | 1 kts | 195° |
| 2026-05-06 06:56 | 26.68907 | -80.09366 | 18 ft | 4 kts | 211° |
| 2026-05-06 06:56 | 26.68871 | -80.09396 | 18 ft | 7 kts | 223° |
| 2026-05-06 06:56 | 26.68827 | -80.09451 | 18 ft | 11 kts | 227° |
| 2026-05-06 06:57 | 26.68762 | -80.09516 | 18 ft | 14 kts | 227° |
| 2026-05-06 06:57 | 26.68695 | -80.09598 | 18 ft | 12 kts | 237° |
| 2026-05-06 06:57 | 26.68651 | -80.09694 | 18 ft | 15 kts | 258° |
| 2026-05-06 06:57 | 26.68641 | -80.09824 | 18 ft | 18 kts | 265° |
| 2026-05-06 06:58 | 26.68624 | -80.09976 | 18 ft | 21 kts | 262° |
| 2026-05-06 06:58 | 26.68603 | -80.10151 | 18 ft | 23 kts | 262° |
| 2026-05-06 06:58 | 26.68576 | -80.10345 | 18 ft | 26 kts | 257° |
| 2026-05-06 06:58 | 26.68562 | -80.10552 | 21 ft | 27 kts | 273° |
| 2026-05-06 06:59 | 26.68572 | -80.10724 | 21 ft | 3 kts | 268° |
| 2026-05-06 06:59 | 26.68570 | -80.10759 | 21 ft | 5 kts | 262° |
| 2026-05-06 06:59 | 26.68558 | -80.10808 | 21 ft | 6 kts | 227° |
| 2026-05-06 06:59 | 26.68506 | -80.10819 | 21 ft | 9 kts | 182° |
| 2026-05-06 07:00 | 26.68460 | -80.10822 | 21 ft | 0 kts | 182° |
| 2026-05-06 07:00 | 26.68459 | -80.10822 | 21 ft | 0 kts | 182° |
| 2026-05-06 07:00 | 26.68455 | -80.10822 | 21 ft | 0 kts | 182° |
| 2026-05-06 07:00 | 26.68451 | -80.10822 | 21 ft | 0 kts | 182° |
| 2026-05-06 07:01 | 26.68443 | -80.10822 | 21 ft | 3 kts | 184° |
| 2026-05-06 07:01 | 26.68392 | -80.10826 | 21 ft | 11 kts | 182° |
| 2026-05-06 07:01 | 26.68349 | -80.10820 | 21 ft | 4 kts | 156° |
| 2026-05-06 07:01 | 26.68321 | -80.10775 | 21 ft | 2 kts | 98° |
| 2026-05-06 07:02 | 26.68320 | -80.10760 | 21 ft | 2 kts | 95° |
| 2026-05-06 07:02 | 26.68319 | -80.10754 | 21 ft | 0 kts | 95° |
| 2026-05-06 07:02 | 26.68315 | -80.10689 | 21 ft | 38 kts | 94° |
| 2026-05-06 07:02 | 26.68285 | -80.10065 | 19 ft | 120 kts | 94° |
| 2026-05-06 07:03 | 26.68244 | -80.08907 | 346 ft | 160 kts | 90° |
| 2026-05-06 07:03 | 26.68255 | -80.07893 | 1581 ft | 123 kts | 82° |
| 2026-05-06 07:03 | 26.68476 | -80.06899 | 1907 ft | 154 kts | 75° |
| 2026-05-06 07:03 | 26.68794 | -80.05675 | 2526 ft | 169 kts | 70° |
| 2026-05-06 07:04 | 26.69196 | -80.04510 | 3379 ft | 171 kts | 71° |
| 2026-05-06 07:04 | 26.69244 | -80.03009 | 3578 ft | 212 kts | 104° |
| 2026-05-06 07:04 | 26.68604 | -80.01549 | 4501 ft | 215 kts | 115° |
| 2026-05-06 07:04 | 26.68265 | -79.99933 | 5301 ft | 220 kts | 92° |
| 2026-05-06 07:05 | 26.68337 | -79.98085 | 5387 ft | 260 kts | 83° |
| 2026-05-06 07:05 | 26.68568 | -79.96000 | 6033 ft | 273 kts | 81° |
| 2026-05-06 07:05 | 26.68734 | -79.93888 | 6843 ft | 279 kts | 89° |
| 2026-05-06 07:05 | 26.68685 | -79.91708 | 7649 ft | 283 kts | 91° |
| 2026-05-06 07:06 | 26.68597 | -79.89510 | 8425 ft | 288 kts | 91° |
| 2026-05-06 07:06 | 26.68503 | -79.87273 | 9188 ft | 291 kts | 92° |
| 2026-05-06 07:06 | 26.68407 | -79.85010 | 9921 ft | 295 kts | 92° |
| 2026-05-06 07:06 | 26.68309 | -79.82712 | 10333 ft | 310 kts | 92° |
| 2026-05-06 07:07 | 26.68201 | -79.80202 | 10401 ft | 334 kts | 92° |
| 2026-05-06 07:07 | 26.68086 | -79.77535 | 10729 ft | 346 kts | 92° |
| 2026-05-06 07:07 | 26.67977 | -79.74876 | 11328 ft | 348 kts | 91° |
| 2026-05-06 07:07 | 26.67955 | -79.72172 | 11857 ft | 351 kts | 90° |
| 2026-05-06 07:08 | 26.67947 | -79.69421 | 12372 ft | 354 kts | 90° |
| 2026-05-06 07:08 | 26.67939 | -79.66656 | 12866 ft | 357 kts | 90° |
| 2026-05-06 07:08 | 26.67929 | -79.63881 | 13335 ft | 361 kts | 90° |
| 2026-05-06 07:08 | 26.67919 | -79.61073 | 13778 ft | 364 kts | 90° |
| 2026-05-06 07:09 | 26.67909 | -79.58228 | 14204 ft | 367 kts | 90° |
| 2026-05-06 07:09 | 26.67898 | -79.55378 | 14618 ft | 370 kts | 90° |
| 2026-05-06 07:09 | 26.67886 | -79.52495 | 15009 ft | 374 kts | 90° |
| 2026-05-06 07:09 | 26.67874 | -79.49599 | 15423 ft | 376 kts | 90° |
| 2026-05-06 07:10 | 26.67860 | -79.46674 | 15774 ft | 379 kts | 90° |
| 2026-05-06 07:10 | 26.67847 | -79.43722 | 16159 ft | 381 kts | 90° |
| 2026-05-06 07:10 | 26.67833 | -79.40747 | 16492 ft | 384 kts | 90° |
| 2026-05-06 07:10 | 26.67817 | -79.37753 | 16847 ft | 386 kts | 90° |
| 2026-05-06 07:11 | 26.67801 | -79.34732 | 17162 ft | 389 kts | 90° |
| 2026-05-06 07:11 | 26.67785 | -79.31700 | 17473 ft | 392 kts | 90° |
| 2026-05-06 07:11 | 26.67768 | -79.28657 | 17782 ft | 393 kts | 90° |
| 2026-05-06 07:11 | 26.67750 | -79.25600 | 18054 ft | 396 kts | 90° |
| 2026-05-06 07:12 | 26.67731 | -79.22527 | 18371 ft | 397 kts | 90° |
| 2026-05-06 07:12 | 26.67711 | -79.19418 | 18610 ft | 400 kts | 90° |
| 2026-05-06 07:12 | 26.67692 | -79.16310 | 18908 ft | 401 kts | 90° |
| 2026-05-06 07:12 | 26.67486 | -79.13317 | 19912 ft | 375 kts | 106° |
| 2026-05-06 07:13 | 26.66603 | -79.11159 | 22655 ft | 291 kts | 123° |
| 2026-05-06 07:13 | 26.65360 | -79.09337 | 22620 ft | 306 kts | 141° |
| 2026-05-06 07:13 | 26.63713 | -79.07750 | 22812 ft | 313 kts | 140° |
| 2026-05-06 07:13 | 26.62226 | -79.06003 | 23220 ft | 316 kts | 135° |
| 2026-05-06 07:14 | 26.60818 | -79.04133 | 23585 ft | 318 kts | 133° |
| 2026-05-06 07:14 | 26.59440 | -79.02200 | 23923 ft | 322 kts | 131° |
| 2026-05-06 07:14 | 26.58055 | -79.00211 | 24422 ft | 324 kts | 131° |
| 2026-05-06 07:14 | 26.56680 | -78.98216 | 24983 ft | 326 kts | 131° |
| 2026-05-06 07:15 | 26.55296 | -78.96201 | 25466 ft | 328 kts | 131° |
| 2026-05-06 07:15 | 26.53907 | -78.94178 | 25961 ft | 331 kts | 131° |
| 2026-05-06 07:15 | 26.52515 | -78.92148 | 26420 ft | 333 kts | 131° |
| 2026-05-06 07:15 | 26.51105 | -78.90093 | 26875 ft | 336 kts | 131° |
| 2026-05-06 07:16 | 26.49680 | -78.88016 | 27321 ft | 338 kts | 131° |
| 2026-05-06 07:16 | 26.48255 | -78.85939 | 27754 ft | 341 kts | 131° |
| 2026-05-06 07:16 | 26.46813 | -78.83839 | 28178 ft | 343 kts | 132° |
| 2026-05-06 07:16 | 26.45342 | -78.81702 | 28304 ft | 357 kts | 131° |
| 2026-05-06 07:17 | 26.43803 | -78.79466 | 28342 ft | 372 kts | 131° |
| 2026-05-06 07:17 | 26.42195 | -78.77130 | 28375 ft | 388 kts | 131° |
| 2026-05-06 07:17 | 26.40524 | -78.74700 | 28410 ft | 404 kts | 131° |
| 2026-05-06 07:17 | 26.38790 | -78.72181 | 28494 ft | 418 kts | 131° |
| 2026-05-06 07:18 | 26.37000 | -78.69582 | 28596 ft | 431 kts | 131° |
| 2026-05-06 07:18 | 26.35150 | -78.66895 | 28718 ft | 443 kts | 131° |
| 2026-05-06 07:18 | 26.33254 | -78.64146 | 28833 ft | 456 kts | 131° |
| 2026-05-06 07:18 | 26.31320 | -78.61340 | 29304 ft | 458 kts | 131° |
| 2026-05-06 07:19 | 26.29391 | -78.58543 | 29935 ft | 457 kts | 131° |
| 2026-05-06 07:19 | 26.27459 | -78.55745 | 30502 ft | 457 kts | 131° |
| 2026-05-06 07:19 | 26.25534 | -78.52959 | 30931 ft | 450 kts | 131° |
| 2026-05-06 07:19 | 26.23612 | -78.50186 | 31007 ft | 462 kts | 131° |
| 2026-05-06 07:20 | 26.21626 | -78.47319 | 31048 ft | 475 kts | 131° |
| 2026-05-06 07:20 | 26.19604 | -78.44401 | 31054 ft | 488 kts | 131° |
| 2026-05-06 07:20 | 26.17518 | -78.41389 | 31063 ft | 493 kts | 131° |
| 2026-05-06 07:21 | 26.13347 | -78.35374 | 31023 ft | 491 kts | 131° |
| 2026-05-06 07:21 | 26.09187 | -78.29385 | 30987 ft | 490 kts | 131° |
| 2026-05-06 07:22 | 26.05041 | -78.23424 | 30987 ft | 490 kts | 131° |
| 2026-05-06 07:22 | 26.00856 | -78.17415 | 30987 ft | 490 kts | 131° |
| 2026-05-06 07:23 | 25.96706 | -78.11465 | 30988 ft | 490 kts | 131° |
| 2026-05-06 07:23 | 25.92531 | -78.05486 | 30988 ft | 490 kts | 131° |
| 2026-05-06 07:24 | 25.88377 | -77.99543 | 30991 ft | 490 kts | 131° |
| 2026-05-06 07:24 | 25.84208 | -77.93587 | 30992 ft | 490 kts | 131° |
| 2026-05-06 07:25 | 25.80029 | -77.87627 | 30993 ft | 490 kts | 131° |
| 2026-05-06 07:25 | 25.75850 | -77.81672 | 30993 ft | 490 kts | 131° |
| 2026-05-06 07:26 | 25.71660 | -77.75709 | 30993 ft | 490 kts | 131° |
| 2026-05-06 07:26 | 25.67500 | -77.69797 | 30993 ft | 490 kts | 131° |
| 2026-05-06 07:27 | 25.63312 | -77.63852 | 30994 ft | 490 kts | 131° |
| 2026-05-06 07:27 | 25.59124 | -77.57916 | 30994 ft | 490 kts | 131° |
| 2026-05-06 07:28 | 25.54922 | -77.51967 | 30994 ft | 490 kts | 131° |
| 2026-05-06 07:28 | 25.48649 | -77.43101 | 30995 ft | 490 kts | 131° |
| 2026-05-06 07:29 | 25.44456 | -77.37183 | 30995 ft | 490 kts | 131° |
| 2026-05-06 07:29 | 25.40261 | -77.31270 | 30988 ft | 490 kts | 132° |
| 2026-05-06 07:30 | 25.36053 | -77.25347 | 30988 ft | 490 kts | 132° |
| 2026-05-06 07:30 | 25.31874 | -77.19472 | 30988 ft | 490 kts | 132° |
| 2026-05-06 07:31 | 25.27653 | -77.13545 | 30989 ft | 490 kts | 132° |
| 2026-05-06 07:31 | 25.23455 | -77.07657 | 30989 ft | 490 kts | 132° |
| 2026-05-06 07:32 | 25.19246 | -77.01761 | 30989 ft | 489 kts | 132° |
| 2026-05-06 07:32 | 25.15050 | -76.95890 | 30987 ft | 487 kts | 132° |
| 2026-05-06 07:33 | 25.10883 | -76.90067 | 30990 ft | 485 kts | 132° |
| 2026-05-06 07:33 | 25.06713 | -76.84255 | 30990 ft | 483 kts | 131° |
| 2026-05-06 07:34 | 25.02572 | -76.78484 | 30991 ft | 482 kts | 131° |
| 2026-05-06 07:34 | 24.98405 | -76.72683 | 30991 ft | 482 kts | 130° |
| 2026-05-06 07:35 | 24.94283 | -76.66949 | 30991 ft | 481 kts | 130° |
| 2026-05-06 07:35 | 24.90113 | -76.61153 | 30991 ft | 482 kts | 130° |
| 2026-05-06 07:36 | 24.85978 | -76.55418 | 30993 ft | 482 kts | 130° |
| 2026-05-06 07:36 | 24.81810 | -76.49645 | 30993 ft | 482 kts | 130° |
| 2026-05-06 07:37 | 24.77667 | -76.43912 | 30993 ft | 482 kts | 130° |
| 2026-05-06 07:37 | 24.73506 | -76.38161 | 30993 ft | 482 kts | 130° |
| 2026-05-06 07:38 | 24.69351 | -76.32425 | 30989 ft | 481 kts | 130° |
| 2026-05-06 07:38 | 24.65184 | -76.26680 | 30989 ft | 481 kts | 130° |
| 2026-05-06 07:39 | 24.61019 | -76.20943 | 30990 ft | 481 kts | 130° |
| 2026-05-06 07:39 | 24.56862 | -76.15225 | 30990 ft | 481 kts | 130° |
| 2026-05-06 07:40 | 24.52681 | -76.09480 | 30990 ft | 481 kts | 130° |
| 2026-05-06 07:40 | 24.48510 | -76.03758 | 30991 ft | 481 kts | 130° |
| 2026-05-06 07:41 | 24.44337 | -75.98038 | 30994 ft | 481 kts | 130° |
| 2026-05-06 07:41 | 24.40171 | -75.92334 | 30996 ft | 481 kts | 130° |
| 2026-05-06 07:42 | 24.35989 | -75.86616 | 30998 ft | 481 kts | 130° |
| 2026-05-06 07:42 | 24.31821 | -75.80923 | 31000 ft | 482 kts | 130° |
| 2026-05-06 07:43 | 24.27622 | -75.75195 | 31000 ft | 481 kts | 130° |
| 2026-05-06 07:43 | 24.23453 | -75.69514 | 31000 ft | 481 kts | 130° |
| 2026-05-06 07:44 | 24.19274 | -75.63826 | 31001 ft | 481 kts | 130° |
| 2026-05-06 07:44 | 24.15066 | -75.58105 | 31001 ft | 481 kts | 130° |
| 2026-05-06 07:45 | 24.10873 | -75.52411 | 31001 ft | 481 kts | 130° |
| 2026-05-06 07:45 | 24.06702 | -75.46754 | 31001 ft | 481 kts | 130° |
| 2026-05-06 07:46 | 24.02494 | -75.41053 | 31001 ft | 481 kts | 130° |
| 2026-05-06 07:46 | 23.98305 | -75.35384 | 31002 ft | 481 kts | 130° |
| 2026-05-06 07:47 | 23.94093 | -75.29693 | 30998 ft | 481 kts | 131° |
| 2026-05-06 07:47 | 23.89904 | -75.24036 | 30998 ft | 481 kts | 131° |
| 2026-05-06 07:48 | 23.85700 | -75.18366 | 30999 ft | 481 kts | 131° |
| 2026-05-06 07:48 | 23.81490 | -75.12696 | 30999 ft | 481 kts | 131° |
| 2026-05-06 07:49 | 23.77287 | -75.07040 | 31000 ft | 482 kts | 131° |
| 2026-05-06 07:49 | 23.75238 | -75.04246 | 31762 ft | 467 kts | 129° |
| 2026-05-06 07:49 | 23.73329 | -75.01472 | 31693 ft | 481 kts | 131° |
| 2026-05-06 07:50 | 23.71152 | -74.98711 | 31071 ft | 482 kts | 132° |
| 2026-05-06 07:50 | 23.69019 | -74.95913 | 31008 ft | 480 kts | 131° |
| 2026-05-06 07:50 | 23.64785 | -74.90269 | 31002 ft | 483 kts | 131° |
| 2026-05-06 07:51 | 23.60549 | -74.84585 | 30812 ft | 487 kts | 131° |
| 2026-05-06 07:51 | 23.58420 | -74.81736 | 30508 ft | 486 kts | 131° |
| 2026-05-06 07:51 | 23.56297 | -74.78895 | 30210 ft | 484 kts | 131° |
| 2026-05-06 07:52 | 23.54173 | -74.76056 | 29913 ft | 484 kts | 131° |
| 2026-05-06 07:52 | 23.52052 | -74.73223 | 29619 ft | 485 kts | 131° |
| 2026-05-06 07:52 | 23.49929 | -74.70388 | 29326 ft | 485 kts | 131° |
| 2026-05-06 07:52 | 23.47797 | -74.67543 | 29031 ft | 486 kts | 131° |
| 2026-05-06 07:53 | 23.45661 | -74.64693 | 28736 ft | 487 kts | 131° |
| 2026-05-06 07:53 | 23.43528 | -74.61850 | 28442 ft | 487 kts | 131° |
| 2026-05-06 07:53 | 23.41406 | -74.59022 | 28150 ft | 487 kts | 131° |
| 2026-05-06 07:53 | 23.39259 | -74.56165 | 27855 ft | 488 kts | 131° |
| 2026-05-06 07:54 | 23.37113 | -74.53308 | 27561 ft | 488 kts | 131° |
| 2026-05-06 07:54 | 23.34964 | -74.50449 | 27267 ft | 489 kts | 131° |
| 2026-05-06 07:54 | 23.32831 | -74.47614 | 26975 ft | 489 kts | 131° |
| 2026-05-06 07:54 | 23.30672 | -74.44746 | 26680 ft | 490 kts | 131° |
| 2026-05-06 07:55 | 23.28534 | -74.41907 | 26389 ft | 490 kts | 131° |
| 2026-05-06 07:55 | 23.26370 | -74.39035 | 26094 ft | 491 kts | 131° |
| 2026-05-06 07:55 | 23.24217 | -74.36180 | 25801 ft | 491 kts | 131° |
| 2026-05-06 07:55 | 23.22056 | -74.33316 | 25504 ft | 491 kts | 131° |
| 2026-05-06 07:56 | 23.19902 | -74.30463 | 25204 ft | 492 kts | 131° |
| 2026-05-06 07:56 | 23.17737 | -74.27560 | 24902 ft | 492 kts | 131° |
| 2026-05-06 07:56 | 23.15885 | -74.24470 | 24546 ft | 497 kts | 117° |
| 2026-05-06 07:56 | 23.14915 | -74.20876 | 24214 ft | 501 kts | 99° |
| 2026-05-06 07:57 | 23.15016 | -74.17081 | 23876 ft | 504 kts | 80° |
| 2026-05-06 07:57 | 23.16160 | -74.13532 | 23532 ft | 505 kts | 63° |
| 2026-05-06 07:57 | 23.18201 | -74.10422 | 23147 ft | 505 kts | 46° |
| 2026-05-06 07:57 | 23.20960 | -74.08118 | 22778 ft | 503 kts | 28° |
| 2026-05-06 07:58 | 23.24200 | -74.06791 | 22375 ft | 496 kts | 11° |
| 2026-05-06 07:58 | 23.27626 | -74.06587 | 22026 ft | 495 kts | 353° |
| 2026-05-06 07:58 | 23.30932 | -74.07513 | 21673 ft | 493 kts | 335° |
| 2026-05-06 07:58 | 23.33732 | -74.09488 | 21347 ft | 488 kts | 316° |
| 2026-05-06 07:59 | 23.35808 | -74.12375 | 21017 ft | 484 kts | 297° |
| 2026-05-06 07:59 | 23.37370 | -74.15615 | 20758 ft | 484 kts | 296° |
| 2026-05-06 07:59 | 23.39003 | -74.18819 | 20606 ft | 484 kts | 299° |
| 2026-05-06 07:59 | 23.40806 | -74.21887 | 20341 ft | 490 kts | 302° |
| 2026-05-06 08:00 | 23.42821 | -74.24912 | 20119 ft | 493 kts | 306° |
| 2026-05-06 08:00 | 23.44951 | -74.27781 | 19794 ft | 492 kts | 309° |
| 2026-05-06 08:00 | 23.47267 | -74.30532 | 19488 ft | 492 kts | 313° |
| 2026-05-06 08:00 | 23.49750 | -74.33106 | 19184 ft | 494 kts | 316° |
| 2026-05-06 08:01 | 23.52352 | -74.35500 | 18886 ft | 496 kts | 319° |
| 2026-05-06 08:01 | 23.54652 | -74.38252 | 18622 ft | 490 kts | 298° |
| 2026-05-06 08:01 | 23.55501 | -74.41800 | 18559 ft | 485 kts | 268° |
| 2026-05-06 08:01 | 23.54440 | -74.45167 | 18607 ft | 483 kts | 234° |
| 2026-05-06 08:02 | 23.51759 | -74.47286 | 18683 ft | 486 kts | 200° |
| 2026-05-06 08:02 | 23.48426 | -74.47907 | 18753 ft | 490 kts | 183° |
| 2026-05-06 08:02 | 23.45081 | -74.47335 | 18770 ft | 495 kts | 165° |
| 2026-05-06 08:02 | 23.42022 | -74.45634 | 18738 ft | 499 kts | 147° |
| 2026-05-06 08:03 | 23.39510 | -74.43012 | 18723 ft | 502 kts | 134° |
| 2026-05-06 08:03 | 23.36799 | -74.40720 | 18680 ft | 494 kts | 159° |
| 2026-05-06 08:03 | 23.33560 | -74.39560 | 18455 ft | 492 kts | 167° |
| 2026-05-06 08:03 | 23.30283 | -74.38565 | 18330 ft | 491 kts | 169° |
| 2026-05-06 08:04 | 23.26961 | -74.37815 | 18168 ft | 489 kts | 175° |
| 2026-05-06 08:04 | 23.23616 | -74.37257 | 17961 ft | 488 kts | 176° |
| 2026-05-06 08:04 | 23.20266 | -74.36829 | 17823 ft | 486 kts | 179° |
| 2026-05-06 08:04 | 23.16913 | -74.36708 | 17723 ft | 482 kts | 186° |
| 2026-05-06 08:05 | 23.13742 | -74.37127 | 13654 ft | 538 kts | 199° |
| 2026-05-06 08:05 | 23.11434 | -74.39525 | 10272 ft | 481 kts | 248° |
| 2026-05-06 08:05 | 23.10397 | -74.42107 | 14826 ft | 352 kts | 255° |
| 2026-05-06 08:05 | 23.09874 | -74.44473 | 15922 ft | 336 kts | 259° |
| 2026-05-06 08:06 | 23.09044 | -74.46912 | 15997 ft | 348 kts | 242° |
| 2026-05-06 08:06 | 23.07884 | -74.49111 | 17005 ft | 332 kts | 239° |
| 2026-05-06 08:06 | 23.06650 | -74.51048 | 18215 ft | 309 kts | 236° |
| 2026-05-06 08:06 | 23.05098 | -74.52733 | 17696 ft | 335 kts | 215° |
| 2026-05-06 08:07 | 23.03011 | -74.53072 | 18813 ft | 308 kts | 166° |
| 2026-05-06 08:07 | 23.01236 | -74.51891 | 19193 ft | 305 kts | 148° |
| 2026-05-06 08:07 | 22.99715 | -74.50253 | 19051 ft | 315 kts | 134° |
| 2026-05-06 08:07 | 22.97978 | -74.48890 | 18989 ft | 311 kts | 155° |
| 2026-05-06 08:08 | 22.96377 | -74.47491 | 19641 ft | 293 kts | 134° |
| 2026-05-06 08:08 | 22.95283 | -74.45661 | 19886 ft | 295 kts | 116° |
| 2026-05-06 08:08 | 22.94745 | -74.43430 | 19496 ft | 316 kts | 101° |
| 2026-05-06 08:08 | 22.94371 | -74.41054 | 19174 ft | 329 kts | 101° |
| 2026-05-06 08:09 | 22.93985 | -74.38557 | 18858 ft | 339 kts | 100° |
| 2026-05-06 08:09 | 22.93593 | -74.35999 | 18571 ft | 346 kts | 100° |
| 2026-05-06 08:09 | 22.93050 | -74.33459 | 18262 ft | 353 kts | 110° |
| 2026-05-06 08:09 | 22.92185 | -74.30943 | 17978 ft | 363 kts | 116° |
| 2026-05-06 08:10 | 22.90756 | -74.28689 | 17661 ft | 370 kts | 132° |
| 2026-05-06 08:10 | 22.88818 | -74.26821 | 17368 ft | 376 kts | 141° |
| 2026-05-06 08:10 | 22.86820 | -74.24971 | 17059 ft | 381 kts | 138° |
| 2026-05-06 08:10 | 22.85200 | -74.22681 | 16716 ft | 388 kts | 122° |
| 2026-05-06 08:11 | 22.84013 | -74.20029 | 16403 ft | 390 kts | 118° |
| 2026-05-06 08:11 | 22.83061 | -74.17318 | 16058 ft | 394 kts | 105° |
| 2026-05-06 08:11 | 22.82558 | -74.14384 | 15784 ft | 394 kts | 100° |
| 2026-05-06 08:11 | 22.82099 | -74.11462 | 15555 ft | 394 kts | 100° |
| 2026-05-06 08:12 | 22.81637 | -74.08536 | 15317 ft | 393 kts | 100° |
| 2026-05-06 08:12 | 22.81173 | -74.05608 | 15070 ft | 393 kts | 100° |
| 2026-05-06 08:12 | 22.80717 | -74.02724 | 14814 ft | 391 kts | 100° |
| 2026-05-06 08:12 | 22.80202 | -73.99953 | 14839 ft | 365 kts | 103° |
| 2026-05-06 08:13 | 22.79248 | -73.97405 | 14837 ft | 363 kts | 119° |
| 2026-05-06 08:13 | 22.77828 | -73.95186 | 14887 ft | 362 kts | 126° |
| 2026-05-06 08:13 | 22.76365 | -73.92967 | 14935 ft | 361 kts | 126° |
| 2026-05-06 08:13 | 22.74906 | -73.90759 | 14974 ft | 362 kts | 126° |
| 2026-05-06 08:14 | 22.73444 | -73.88542 | 15005 ft | 362 kts | 126° |
| 2026-05-06 08:14 | 22.71982 | -73.86316 | 15030 ft | 363 kts | 125° |
| 2026-05-06 08:14 | 22.70509 | -73.84105 | 15038 ft | 363 kts | 126° |
| 2026-05-06 08:14 | 22.69034 | -73.81892 | 15046 ft | 363 kts | 126° |
| 2026-05-06 08:15 | 22.67558 | -73.79677 | 15047 ft | 364 kts | 126° |
| 2026-05-06 08:15 | 22.66081 | -73.77457 | 15046 ft | 364 kts | 126° |
| 2026-05-06 08:15 | 22.64603 | -73.75223 | 15037 ft | 365 kts | 126° |
| 2026-05-06 08:15 | 22.63131 | -73.72999 | 15021 ft | 364 kts | 126° |
| 2026-05-06 08:16 | 22.61662 | -73.70766 | 14999 ft | 364 kts | 126° |
| 2026-05-06 08:16 | 22.60197 | -73.68538 | 14971 ft | 364 kts | 126° |
| 2026-05-06 08:16 | 22.58734 | -73.66312 | 14936 ft | 364 kts | 126° |
| 2026-05-06 08:16 | 22.57268 | -73.64083 | 14894 ft | 364 kts | 126° |
| 2026-05-06 08:17 | 22.55806 | -73.61858 | 14846 ft | 363 kts | 126° |
| 2026-05-06 08:17 | 22.54341 | -73.59628 | 14791 ft | 363 kts | 126° |
| 2026-05-06 08:17 | 22.52888 | -73.57417 | 14729 ft | 363 kts | 126° |
| 2026-05-06 08:17 | 22.51431 | -73.55199 | 14661 ft | 362 kts | 126° |
| 2026-05-06 08:18 | 22.49972 | -73.52978 | 14586 ft | 362 kts | 126° |
| 2026-05-06 08:18 | 22.48530 | -73.50782 | 14505 ft | 361 kts | 126° |
| 2026-05-06 08:18 | 22.47080 | -73.48575 | 14418 ft | 361 kts | 126° |
| 2026-05-06 08:18 | 22.45631 | -73.46368 | 14323 ft | 360 kts | 126° |
| 2026-05-06 08:19 | 22.44171 | -73.44146 | 14221 ft | 360 kts | 126° |
| 2026-05-06 08:19 | 22.42741 | -73.41970 | 14115 ft | 359 kts | 126° |
| 2026-05-06 08:19 | 22.41290 | -73.39761 | 14001 ft | 358 kts | 126° |
| 2026-05-06 08:19 | 22.39860 | -73.37585 | 13882 ft | 358 kts | 124° |
| 2026-05-06 08:20 | 22.38417 | -73.35390 | 13755 ft | 357 kts | 126° |
| 2026-05-06 08:20 | 22.36975 | -73.33195 | 13620 ft | 356 kts | 126° |
| 2026-05-06 08:20 | 22.35560 | -73.31042 | 13481 ft | 355 kts | 126° |
| 2026-05-06 08:20 | 22.34130 | -73.28863 | 13333 ft | 355 kts | 126° |
| 2026-05-06 08:21 | 22.32706 | -73.26692 | 13180 ft | 354 kts | 126° |
| 2026-05-06 08:21 | 22.31282 | -73.24526 | 13020 ft | 353 kts | 126° |
| 2026-05-06 08:21 | 22.29876 | -73.22390 | 12855 ft | 352 kts | 126° |
| 2026-05-06 08:21 | 22.28462 | -73.20242 | 12685 ft | 351 kts | 126° |
| 2026-05-06 08:22 | 22.27057 | -73.18105 | 12510 ft | 349 kts | 126° |
| 2026-05-06 08:22 | 22.25655 | -73.15981 | 12523 ft | 341 kts | 127° |
| 2026-05-06 08:22 | 22.24259 | -73.13981 | 12806 ft | 327 kts | 127° |
| 2026-05-06 08:22 | 22.22974 | -73.11979 | 12727 ft | 327 kts | 124° |
| 2026-05-06 08:23 | 22.21783 | -73.09873 | 12281 ft | 336 kts | 120° |
| 2026-05-06 08:23 | 22.20689 | -73.07623 | 11880 ft | 340 kts | 116° |
| 2026-05-06 08:23 | 22.19655 | -73.05323 | 11438 ft | 344 kts | 116° |
| 2026-05-06 08:23 | 22.18676 | -73.03010 | 11191 ft | 339 kts | 113° |
| 2026-05-06 08:24 | 22.17913 | -73.00641 | 11373 ft | 324 kts | 107° |
| 2026-05-06 08:24 | 22.17310 | -72.98319 | 10848 ft | 333 kts | 106° |
| 2026-05-06 08:24 | 22.16554 | -72.95898 | 10160 ft | 341 kts | 114° |
| 2026-05-06 08:24 | 22.15661 | -72.93648 | 10781 ft | 308 kts | 111° |
| 2026-05-06 08:25 | 22.14797 | -72.91581 | 10658 ft | 307 kts | 121° |
| 2026-05-06 08:25 | 22.13474 | -72.89951 | 11350 ft | 278 kts | 137° |
| 2026-05-06 08:25 | 22.12019 | -72.88666 | 11794 ft | 263 kts | 143° |
| 2026-05-06 08:25 | 22.10569 | -72.87518 | 11893 ft | 263 kts | 144° |
| 2026-05-06 08:26 | 22.09074 | -72.86319 | 11738 ft | 271 kts | 142° |
| 2026-05-06 08:26 | 22.07601 | -72.85044 | 11637 ft | 275 kts | 141° |
| 2026-05-06 08:26 | 22.06090 | -72.83785 | 11702 ft | 271 kts | 142° |
| 2026-05-06 08:26 | 22.04595 | -72.82499 | 11318 ft | 296 kts | 141° |
| 2026-05-06 08:27 | 22.02859 | -72.81051 | 10805 ft | 328 kts | 143° |
| 2026-05-06 08:27 | 22.01084 | -72.79508 | 11263 ft | 326 kts | 139° |
| 2026-05-06 08:27 | 21.99332 | -72.77843 | 10720 ft | 358 kts | 139° |
| 2026-05-06 08:27 | 21.97367 | -72.75988 | 8494 ft | 417 kts | 137° |
| 2026-05-06 08:28 | 21.95265 | -72.73988 | 8627 ft | 376 kts | 139° |
| 2026-05-06 08:28 | 21.93425 | -72.72269 | 8675 ft | 337 kts | 138° |
| 2026-05-06 08:28 | 21.91771 | -72.70572 | 7954 ft | 328 kts | 133° |
| 2026-05-06 08:28 | 21.90250 | -72.68752 | 7021 ft | 324 kts | 130° |
| 2026-05-06 08:29 | 21.88928 | -72.66907 | 6648 ft | 302 kts | 123° |
| 2026-05-06 08:29 | 21.87916 | -72.65017 | 6390 ft | 281 kts | 118° |
| 2026-05-06 08:29 | 21.86880 | -72.63287 | 5954 ft | 266 kts | 137° |
| 2026-05-06 08:29 | 21.85664 | -72.61868 | 5590 ft | 256 kts | 128° |
| 2026-05-06 08:30 | 21.84672 | -72.60278 | 4978 ft | 258 kts | 119° |
| 2026-05-06 08:30 | 21.83912 | -72.58506 | 4075 ft | 270 kts | 110° |
| 2026-05-06 08:30 | 21.83289 | -72.56632 | 3695 ft | 257 kts | 109° |
| 2026-05-06 08:30 | 21.82773 | -72.54857 | 3469 ft | 243 kts | 104° |
| 2026-05-06 08:31 | 21.82345 | -72.53155 | 3178 ft | 234 kts | 106° |
| 2026-05-06 08:31 | 21.81857 | -72.51511 | 2834 ft | 228 kts | 107° |
| 2026-05-06 08:31 | 21.81439 | -72.49896 | 2562 ft | 221 kts | 106° |
| 2026-05-06 08:31 | 21.80884 | -72.48364 | 2165 ft | 219 kts | 114° |
| 2026-05-06 08:32 | 21.80236 | -72.46956 | 2165 ft | 199 kts | 115° |
| 2026-05-06 08:32 | 21.80041 | -72.46501 | 2222 ft | 189 kts | 112° |
| 2026-05-06 08:32 | 21.79622 | -72.45283 | 2057 ft | 185 kts | 108° |
| 2026-05-06 08:32 | 21.79254 | -72.43926 | 1629 ft | 191 kts | 103° |
| 2026-05-06 08:33 | 21.78986 | -72.42563 | 1541 ft | 178 kts | 101° |
| 2026-05-06 08:33 | 21.78757 | -72.41348 | 1581 ft | 158 kts | 100° |
| 2026-05-06 08:33 | 21.78597 | -72.40210 | 1392 ft | 154 kts | 97° |
| 2026-05-06 08:33 | 21.78471 | -72.39043 | 1059 ft | 160 kts | 95° |
| 2026-05-06 08:34 | 21.78394 | -72.37862 | 903 ft | 152 kts | 91° |
| 2026-05-06 08:34 | 21.78447 | -72.35666 | 556 ft | 147 kts | 86° |
| 2026-05-06 08:34 | 21.78452 | -72.34547 | 256 ft | 151 kts | 95° |
| 2026-05-06 08:35 | 21.78551 | -72.33676 | 15 ft | 7 kts | 205° |
| 2026-05-06 08:35 | 21.78551 | -72.33675 | 15 ft | 0 kts | 210° |
| 2026-05-06 08:37 | 26.68892 | -80.09335 | 18 ft | 0 kts | 160° |